Airfield :







YOU CAN JOIN US ON...

 
LOGIN :

Register | Disclaimer

   EN    FR    IT 

 









Legend :    VFR   Marginal VFR   IFR   Intensive IFR   Very Intensive IFR
Visi :
Ceiling :
>= 8 km
>= 3000ft
5 to 8 km
1000 to 3000 ft
1500m to 5 km
500 to 1000 ft
800 to 1500m
200 to 500 ft
< 800m
< 200 ft
Symbols :   Thunderstorms  Fog  Heavy snow  Heavy precipitations  Wind > 20 kt






- Airport Elevation : 534 ft
- IATA code : PQI


KPQI - Northern Maine Regional Arpt At Presque Isle

CURRENT METAR :
  • 180156Z AUTO 19003KT 10SM CLR 12/10 A2988 RMK AO2 SLP142 T01170100

EXPIRED METARs :
  • 180056Z AUTO 00000KT 10SM CLR 13/11 A2986 RMK AO2 SLP135 T01280106
  • 172356Z AUTO 00000KT 10SM CLR 18/10 A2984 RMK AO2 SLP129 T01780100 10189 20156 53016

TAF KPQI
Valid from the 18 at 00:00 until the 19 at 00:00 UTC


172336Z 1800/1824 26004KT P6SM SCT060
FM180300 21004KT P6SM FEW070
FM181400 22010G17KT P6SM FEW050
FM182200 20008KT P6SM FEW070 BKN110
KZBW FIR / North America



MET'MAP, your aeronautical weather chart ! - Copyright ORBIFLY December 2007 - Disclaimer

ORBIFLY MET'MAP TEAM :

Programming & Development : Alexandra Zaïnal
Concept & original design : Baudouin d'Aumeries
Assistance for programming : Marc-Olivier Méhu
Technical & hardware support : Manuel Goepfert

Contact : metmap@orbifly.com




SOURCES & CREDITS :

   NOAA